Time,TemperatureF,DewpointF,PressureIn,WindDirection,WindDirectionDegrees,WindSpeedMPH,WindSpeedGustMPH,Humidity,HourlyPrecipIn,Conditions,Clouds,dailyrainin,SoftwareType,DateUTC
2013-08-05 00:05:00,83.1,56.3,29.65,West,281,2.0,3.0,40,0.00,,,0.00,Wunderground v.1.15,2013-08-05 07:05:00,
2013-08-05 00:10:00,83.4,56.5,29.65,West,264,2.0,2.0,40,0.00,,,0.00,Wunderground v.1.15,2013-08-05 07:10:00,
2013-08-05 00:16:00,83.4,56.5,29.65,West,280,2.0,2.0,40,0.00,,,0.00,Wunderground v.1.15,2013-08-05 07:16:00,
2013-08-05 00:21:00,83.2,56.4,29.65,WNW,288,3.0,5.0,40,0.00,,,0.00,Wunderground v.1.15,2013-08-05 07:21:00,
2013-08-05 00:27:00,82.4,56.3,29.65,WNW,301,4.0,5.0,41,0.00,,,0.00,Wunderground v.1.15,2013-08-05 07:27:00,
2013-08-05 00:32:00,82.1,56.1,29.65,NW,304,4.0,4.0,41,0.00,,,0.00,Wunderground v.1.15,2013-08-05 07:32:00,
2013-08-05 00:38:00,81.9,56.6,29.65,WNW,297,3.0,4.0,42,0.00,,,0.00,Wunderground v.1.15,2013-08-05 07:38:00,
2013-08-05 00:44:00,82.3,56.2,29.65,WNW,294,3.0,4.0,41,0.00,,,0.00,Wunderground v.1.15,2013-08-05 07:44:00,
2013-08-05 00:50:00,82.3,56.2,29.65,WNW,296,4.0,6.0,41,0.00,,,0.00,Wunderground v.1.15,2013-08-05 07:50:00,
2013-08-05 00:54:00,81.7,56.4,29.65,NW,304,6.0,6.0,42,0.00,,,0.00,Wunderground v.1.15,2013-08-05 07:54:00,
2013-08-05 01:01:00,81.7,56.4,29.65,WNW,287,5.0,6.0,42,0.00,,,0.00,Wunderground v.1.15,2013-08-05 08:01:00,
2013-08-05 01:05:00,82.4,56.3,29.66,WNW,282,5.0,6.0,41,0.00,,,0.00,Wunderground v.1.15,2013-08-05 08:05:00,
2013-08-05 01:12:00,82.9,56.1,29.66,WNW,289,4.0,4.0,40,0.00,,,0.00,Wunderground v.1.15,2013-08-05 08:12:00,
2013-08-05 01:18:00,82.8,56.7,29.65,WNW,288,3.0,5.0,41,0.00,,,0.00,Wunderground v.1.15,2013-08-05 08:18:00,
2013-08-05 01:23:00,82.3,56.2,29.65,WNW,297,4.0,5.0,41,0.00,,,0.00,Wunderground v.1.15,2013-08-05 08:23:00,
2013-08-05 01:29:00,81.9,56.6,29.65,WNW,297,4.0,5.0,42,0.00,,,0.00,Wunderground v.1.15,2013-08-05 08:29:00,
2013-08-05 01:35:00,82.0,56.0,29.65,West,262,3.0,4.0,41,0.00,,,0.00,Wunderground v.1.15,2013-08-05 08:35:00,
2013-08-05 01:41:00,81.4,56.1,29.66,WNW,283,2.0,3.0,42,0.00,,,0.00,Wunderground v.1.15,2013-08-05 08:41:00,
2013-08-05 01:48:00,80.9,56.3,29.66,NW,304,1.0,3.0,43,0.00,,,0.00,Wunderground v.1.15,2013-08-05 08:48:00,
2013-08-05 01:54:00,81.3,56.7,29.65,NW,314,2.0,2.0,43,0.00,,,0.00,Wunderground v.1.15,2013-08-05 08:54:00,
2013-08-05 02:00:00,81.3,56.7,29.65,WNW,294,2.0,2.0,43,0.00,,,0.00,Wunderground v.1.15,2013-08-05 09:00:00,
2013-08-05 02:05:00,81.1,56.5,29.65,WNW,288,2.0,3.0,43,0.00,,,0.00,Wunderground v.1.15,2013-08-05 09:05:00,
2013-08-05 02:11:00,81.2,55.9,29.65,WNW,297,2.0,2.0,42,0.00,,,0.00,Wunderground v.1.15,2013-08-05 09:11:00,
2013-08-05 02:17:00,81.4,56.1,29.65,WNW,297,3.0,5.0,42,0.00,,,0.00,Wunderground v.1.15,2013-08-05 09:17:00,
2013-08-05 02:22:00,80.8,56.2,29.65,WNW,303,4.0,6.0,43,0.00,,,0.00,Wunderground v.1.15,2013-08-05 09:22:00,
2013-08-05 02:31:00,80.3,55.8,29.65,WNW,297,6.0,6.0,43,0.00,,,0.00,Wunderground v.1.15,2013-08-05 09:31:00,
2013-08-05 02:37:00,80.3,55.1,29.65,NW,306,6.0,6.0,42,0.00,,,0.00,Wunderground v.1.15,2013-08-05 09:37:00,
2013-08-05 02:43:00,80.4,55.2,29.65,NW,304,5.0,5.0,42,0.00,,,0.00,Wunderground v.1.15,2013-08-05 09:43:00,
2013-08-05 02:48:00,80.7,55.5,29.65,WNW,293,5.0,5.0,42,0.00,,,0.00,Wunderground v.1.15,2013-08-05 09:48:00,
2013-08-05 02:53:00,81.3,54.0,29.66,WNW,282,3.0,4.0,39,0.00,,,0.00,Wunderground v.1.15,2013-08-05 09:53:00,
2013-08-05 02:59:00,82.0,53.9,29.66,WNW,297,3.0,4.0,38,0.00,,,0.00,Wunderground v.1.15,2013-08-05 09:59:00,
2013-08-05 03:04:00,81.6,54.2,29.66,WNW,296,3.0,4.0,39,0.00,,,0.00,Wunderground v.1.15,2013-08-05 10:04:00,
2013-08-05 03:10:00,81.4,54.1,29.66,WNW,287,3.0,3.0,39,0.00,,,0.00,Wunderground v.1.15,2013-08-05 10:10:00,
2013-08-05 03:14:00,81.5,54.2,29.66,WNW,295,2.0,3.0,39,0.00,,,0.00,Wunderground v.1.15,2013-08-05 10:14:00,
2013-08-05 03:19:00,81.5,54.2,29.66,WNW,293,3.0,3.0,39,0.00,,,0.00,Wunderground v.1.15,2013-08-05 10:19:00,
2013-08-05 03:26:00,81.2,53.2,29.66,West,268,2.0,3.0,38,0.00,,,0.00,Wunderground v.1.15,2013-08-05 10:26:00,
2013-08-05 03:31:00,81.4,54.1,29.66,West,268,0.0,1.0,39,0.00,,,0.00,Wunderground v.1.15,2013-08-05 10:31:00,
2013-08-05 03:37:00,81.4,54.1,29.66,WNW,285,0.0,1.0,39,0.00,,,0.00,Wunderground v.1.15,2013-08-05 10:37:00,
2013-08-05 03:41:00,81.7,53.6,29.66,West,278,0.0,0.0,38,0.00,,,0.00,Wunderground v.1.15,2013-08-05 10:41:00,
2013-08-05 03:48:00,82.1,54.0,29.66,West,281,1.0,2.0,38,0.00,,,0.00,Wunderground v.1.15,2013-08-05 10:48:00,
2013-08-05 03:52:00,81.9,53.8,29.66,WNW,300,2.0,4.0,38,0.00,,,0.00,Wunderground v.1.15,2013-08-05 10:52:00,
2013-08-05 03:59:00,81.5,54.2,29.66,WNW,298,4.0,5.0,39,0.00,,,0.00,Wunderground v.1.15,2013-08-05 10:59:00,
2013-08-05 04:04:00,81.1,54.5,29.66,NW,304,4.0,4.0,40,0.00,,,0.00,Wunderground v.1.15,2013-08-05 11:04:00,
2013-08-05 04:10:00,81.3,54.7,29.67,WNW,298,4.0,4.0,40,0.00,,,0.00,Wunderground v.1.15,2013-08-05 11:10:00,
2013-08-05 04:15:00,81.5,54.2,29.67,WNW,296,3.0,4.0,39,0.00,,,0.00,Wunderground v.1.15,2013-08-05 11:15:00,
2013-08-05 04:21:00,81.5,53.4,29.67,WNW,296,2.0,2.0,38,0.00,,,0.00,Wunderground v.1.15,2013-08-05 11:21:00,
2013-08-05 04:25:00,81.7,52.9,29.67,WNW,297,1.0,2.0,37,0.00,,,0.00,Wunderground v.1.15,2013-08-05 11:25:00,
2013-08-05 04:31:00,81.9,53.1,29.68,WNW,296,0.0,1.0,37,0.00,,,0.00,Wunderground v.1.15,2013-08-05 11:31:00,
2013-08-05 04:37:00,81.5,54.2,29.68,NW,326,1.0,2.0,39,0.00,,,0.00,Wunderground v.1.15,2013-08-05 11:37:00,
2013-08-05 04:42:00,81.2,53.9,29.69,NNW,328,1.0,3.0,39,0.00,,,0.00,Wunderground v.1.15,2013-08-05 11:42:00,
2013-08-05 04:48:00,81.4,53.4,29.69,NW,314,2.0,3.0,38,0.00,,,0.00,Wunderground v.1.15,2013-08-05 11:48:00,
2013-08-05 04:53:00,81.9,52.3,29.69,NW,314,1.0,2.0,36,0.00,,,0.00,Wunderground v.1.15,2013-08-05 11:53:00,
2013-08-05 04:59:00,80.8,55.6,29.70,SW,224,2.0,6.0,42,0.00,,,0.00,Wunderground v.1.15,2013-08-05 11:59:00,
2013-08-05 05:04:00,79.0,56.5,29.70,WSW,252,4.0,6.0,46,0.00,,,0.00,Wunderground v.1.15,2013-08-05 12:04:00,
2013-08-05 05:11:00,78.4,57.1,29.71,West,273,4.0,5.0,48,0.00,,,0.00,Wunderground v.1.15,2013-08-05 12:11:00,
2013-08-05 05:17:00,78.5,57.7,29.72,SW,233,5.0,8.0,49,0.00,,,0.00,Wunderground v.1.15,2013-08-05 12:17:00,
2013-08-05 05:21:00,78.6,57.3,29.73,ESE,120,6.0,8.0,48,0.00,,,0.00,Wunderground v.1.15,2013-08-05 12:21:00,
2013-08-05 05:27:00,79.2,58.4,29.73,SSE,160,10.0,14.0,49,0.00,,,0.00,Wunderground v.1.15,2013-08-05 12:27:00,
2013-08-05 05:33:00,79.1,59.4,29.74,SE,137,15.0,23.0,51,0.00,,,0.00,Wunderground v.1.15,2013-08-05 12:33:00,
2013-08-05 05:39:00,78.5,58.9,29.74,SE,134,12.0,23.0,51,0.00,,,0.00,Wunderground v.1.15,2013-08-05 12:39:00,
2013-08-05 05:43:00,78.2,58.0,29.74,SSE,150,12.0,17.0,50,0.00,,,0.00,Wunderground v.1.15,2013-08-05 12:43:00,
2013-08-05 05:50:00,77.9,58.3,29.74,SE,143,10.0,10.0,51,0.00,,,0.00,Wunderground v.1.15,2013-08-05 12:50:00,
2013-08-05 05:56:00,77.7,58.1,29.74,SSW,194,5.0,10.0,51,0.00,,,0.00,Wunderground v.1.15,2013-08-05 12:56:00,
2013-08-05 06:00:00,77.6,58.0,29.74,SW,226,2.0,3.0,51,0.00,,,0.00,Wunderground v.1.15,2013-08-05 13:00:00,
2013-08-05 06:07:00,77.6,58.0,29.74,WNW,285,1.0,3.0,51,0.00,,,0.00,Wunderground v.1.15,2013-08-05 13:07:00,
2013-08-05 06:12:00,77.6,57.5,29.74,West,269,2.0,2.0,50,0.00,,,0.00,Wunderground v.1.15,2013-08-05 13:12:00,
2013-08-05 06:18:00,77.7,57.6,29.74,WSW,253,2.0,4.0,50,0.00,,,0.00,Wunderground v.1.15,2013-08-05 13:18:00,
2013-08-05 06:25:00,77.9,57.2,29.74,SW,217,4.0,7.0,49,0.00,,,0.00,Wunderground v.1.15,2013-08-05 13:25:00,
2013-08-05 06:31:00,78.0,57.9,29.74,SW,225,4.0,9.0,50,0.00,,,0.00,Wunderground v.1.15,2013-08-05 13:31:00,
2013-08-05 06:36:00,78.1,57.9,29.74,SW,229,7.0,9.0,50,0.00,,,0.00,Wunderground v.1.15,2013-08-05 13:36:00,
2013-08-05 06:41:00,78.1,57.9,29.74,SSW,198,7.0,8.0,50,0.00,,,0.00,Wunderground v.1.15,2013-08-05 13:41:00,
2013-08-05 06:48:00,77.9,58.3,29.74,SSW,195,6.0,9.0,51,0.00,,,0.00,Wunderground v.1.15,2013-08-05 13:48:00,
2013-08-05 06:53:00,77.6,59.1,29.74,SW,228,6.0,9.0,53,0.00,,,0.00,Wunderground v.1.15,2013-08-05 13:53:00,
2013-08-05 06:59:00,77.4,58.9,29.74,SSW,198,6.0,9.0,53,0.00,,,0.00,Wunderground v.1.15,2013-08-05 13:59:00,
2013-08-05 07:04:00,77.2,59.3,29.74,SW,225,4.0,6.0,54,0.00,,,0.00,Wunderground v.1.15,2013-08-05 14:04:00,
2013-08-05 07:12:00,77.0,59.1,29.75,WSW,256,4.0,4.0,54,0.00,,,0.00,Wunderground v.1.15,2013-08-05 14:12:00,
2013-08-05 07:19:00,77.1,59.2,29.75,South,187,3.0,4.0,54,0.00,,,0.00,Wunderground v.1.15,2013-08-05 14:19:00,
2013-08-05 07:23:00,77.2,58.7,29.75,SSW,207,2.0,3.0,53,0.00,,,0.00,Wunderground v.1.15,2013-08-05 14:23:00,
2013-08-05 07:31:00,77.3,58.8,29.75,West,262,1.0,3.0,53,0.00,,,0.00,Wunderground v.1.15,2013-08-05 14:31:00,
2013-08-05 07:36:00,77.4,58.9,29.75,WNW,298,2.0,3.0,53,0.00,,,0.00,Wunderground v.1.15,2013-08-05 14:36:00,
2013-08-05 07:41:00,77.5,59.0,29.75,WNW,301,2.0,3.0,53,0.00,,,0.00,Wunderground v.1.15,2013-08-05 14:41:00,
2013-08-05 07:48:00,77.6,59.1,29.75,West,274,3.0,4.0,53,0.00,,,0.00,Wunderground v.1.15,2013-08-05 14:48:00,
2013-08-05 07:52:00,77.5,59.5,29.74,WNW,283,3.0,3.0,54,0.00,,,0.00,Wunderground v.1.15,2013-08-05 14:52:00,
2013-08-05 07:57:00,77.4,60.0,29.74,West,273,2.0,3.0,55,0.00,,,0.00,Wunderground v.1.15,2013-08-05 14:57:00,
2013-08-05 08:02:00,77.4,60.0,29.75,WNW,292,3.0,4.0,55,0.00,,,0.00,Wunderground v.1.15,2013-08-05 15:02:00,
2013-08-05 08:09:00,77.4,59.5,29.75,WNW,301,3.0,4.0,54,0.00,,,0.00,Wunderground v.1.15,2013-08-05 15:09:00,
2013-08-05 08:15:00,77.7,59.7,29.75,NNW,332,2.0,3.0,54,0.00,,,0.00,Wunderground v.1.15,2013-08-05 15:15:00,
2013-08-05 08:21:00,78.1,59.0,29.75,West,270,2.0,2.0,52,0.00,,,0.00,Wunderground v.1.15,2013-08-05 15:21:00,
2013-08-05 08:26:00,78.6,57.8,29.75,West,273,2.0,5.0,49,0.00,,,0.00,Wunderground v.1.15,2013-08-05 15:26:00,
2013-08-05 08:33:00,79.2,58.4,29.75,ENE,74,3.0,6.0,49,0.00,,,0.00,Wunderground v.1.15,2013-08-05 15:33:00,
2013-08-05 08:39:00,80.3,57.0,29.75,NE,46,6.0,11.0,45,0.00,,,0.00,Wunderground v.1.15,2013-08-05 15:39:00,
2013-08-05 08:44:00,80.7,56.8,29.75,NE,37,9.0,12.0,44,0.00,,,0.00,Wunderground v.1.15,2013-08-05 15:44:00,
2013-08-05 08:49:00,81.1,56.5,29.75,NE,45,11.0,19.0,43,0.00,,,0.00,Wunderground v.1.15,2013-08-05 15:49:00,
2013-08-05 08:55:00,81.0,56.4,29.75,ENE,60,13.0,19.0,43,0.00,,,0.00,Wunderground v.1.15,2013-08-05 15:55:00,
2013-08-05 09:01:00,80.7,56.1,29.75,NE,44,13.0,16.0,43,0.00,,,0.00,Wunderground v.1.15,2013-08-05 16:01:00,
2013-08-05 09:09:00,80.6,55.4,29.75,North,10,15.0,20.0,42,0.00,,,0.00,Wunderground v.1.15,2013-08-05 16:09:00,
2013-08-05 09:14:00,80.6,56.0,29.75,ENE,67,15.0,21.0,43,0.00,,,0.00,Wunderground v.1.15,2013-08-05 16:14:00,
2013-08-05 09:20:00,80.4,55.9,29.74,NE,45,15.0,15.0,43,0.00,,,0.00,Wunderground v.1.15,2013-08-05 16:20:00,
2013-08-05 09:25:00,80.0,56.1,29.75,NE,49,16.0,20.0,44,0.00,,,0.00,Wunderground v.1.15,2013-08-05 16:25:00,
2013-08-05 09:31:00,79.6,57.0,29.75,ENE,69,15.0,15.0,46,0.00,,,0.00,Wunderground v.1.15,2013-08-05 16:31:00,
2013-08-05 09:37:00,79.2,57.2,29.75,NW,326,12.0,17.0,47,0.00,,,0.00,Wunderground v.1.15,2013-08-05 16:37:00,
2013-08-05 09:42:00,78.9,57.0,29.75,NE,40,11.0,16.0,47,0.00,,,0.00,Wunderground v.1.15,2013-08-05 16:42:00,
2013-08-05 09:48:00,78.6,57.3,29.74,NE,38,12.0,16.0,48,0.00,,,0.00,Wunderground v.1.15,2013-08-05 16:48:00,
2013-08-05 09:53:00,78.6,57.3,29.74,NE,49,12.0,14.0,48,0.00,,,0.00,Wunderground v.1.15,2013-08-05 16:53:00,
2013-08-05 09:59:00,78.5,57.7,29.73,NNW,340,10.0,14.0,49,0.00,,,0.00,Wunderground v.1.15,2013-08-05 16:59:00,
2013-08-05 10:05:00,78.2,58.6,29.72,NNW,343,12.0,17.0,51,0.00,,,0.00,Wunderground v.1.15,2013-08-05 17:05:00,
2013-08-05 10:11:00,78.3,58.7,29.72,NE,37,12.0,13.0,51,0.00,,,0.00,Wunderground v.1.15,2013-08-05 17:11:00,
2013-08-05 10:17:00,78.3,58.1,29.71,NE,37,11.0,24.0,50,0.00,,,0.00,Wunderground v.1.15,2013-08-05 17:17:00,
2013-08-05 10:22:00,78.2,57.5,29.70,NE,34,12.0,12.0,49,0.00,,,0.00,Wunderground v.1.15,2013-08-05 17:22:00,
2013-08-05 10:27:00,79.2,56.6,29.70,North,360,13.0,17.0,46,0.00,,,0.00,Wunderground v.1.15,2013-08-05 17:27:00,
2013-08-05 10:32:00,80.1,55.6,29.70,NNE,27,13.0,18.0,43,0.00,,,0.00,Wunderground v.1.15,2013-08-05 17:32:00,
2013-08-05 10:39:00,80.6,56.7,29.70,West,274,11.0,18.0,44,0.00,,,0.00,Wunderground v.1.15,2013-08-05 17:39:00,
2013-08-05 10:43:00,81.2,56.6,29.70,ESE,115,8.0,11.0,43,0.00,,,0.00,Wunderground v.1.15,2013-08-05 17:43:00,
2013-08-05 10:50:00,82.1,56.7,29.70,East,83,5.0,7.0,42,0.00,,,0.00,Wunderground v.1.15,2013-08-05 17:50:00,
2013-08-05 10:57:00,82.0,57.9,29.71,ENE,64,6.0,9.0,44,0.00,,,0.00,Wunderground v.1.15,2013-08-05 17:57:00,
2013-08-05 11:03:00,81.7,59.5,29.71,East,96,7.0,8.0,47,0.00,,,0.00,Wunderground v.1.15,2013-08-05 18:03:00,
2013-08-05 11:08:00,81.2,59.6,29.72,ESE,102,7.0,9.0,48,0.00,,,0.00,Wunderground v.1.15,2013-08-05 18:08:00,
2013-08-05 11:13:00,80.6,59.7,29.72,East,83,8.0,10.0,49,0.00,,,0.00,Wunderground v.1.15,2013-08-05 18:13:00,
2013-08-05 11:19:00,80.8,60.4,29.72,ENE,67,7.0,10.0,50,0.00,,,0.00,Wunderground v.1.15,2013-08-05 18:19:00,
2013-08-05 11:25:00,81.9,59.7,29.72,ENE,63,6.0,10.0,47,0.00,,,0.00,Wunderground v.1.15,2013-08-05 18:25:00,
2013-08-05 11:30:00,83.0,58.8,29.72,ENE,71,7.0,7.0,44,0.00,,,0.00,Wunderground v.1.15,2013-08-05 18:30:00,
2013-08-05 11:35:00,83.3,58.5,29.72,ENE,60,7.0,12.0,43,0.00,,,0.00,Wunderground v.1.15,2013-08-05 18:35:00,
2013-08-05 11:42:00,84.6,59.0,29.72,ENE,69,7.0,9.0,42,0.00,,,0.00,Wunderground v.1.15,2013-08-05 18:42:00,
2013-08-05 11:48:00,84.8,59.2,29.72,NE,41,7.0,9.0,42,0.00,,,0.00,Wunderground v.1.15,2013-08-05 18:48:00,
2013-08-05 11:53:00,86.0,57.4,29.71,NE,51,6.0,6.0,38,0.00,,,0.00,Wunderground v.1.15,2013-08-05 18:53:00,
2013-08-05 12:00:00,87.5,57.3,29.71,NW,311,4.0,4.0,36,0.00,,,0.00,Wunderground v.1.15,2013-08-05 19:00:00,
2013-08-05 12:05:00,89.7,56.8,29.71,ESE,104,2.0,4.0,33,0.00,,,0.00,Wunderground v.1.15,2013-08-05 19:05:00,
2013-08-05 12:13:00,88.5,55.7,29.71,NE,34,6.0,7.0,33,0.00,,,0.00,Wunderground v.1.15,2013-08-05 19:13:00,
2013-08-05 12:19:00,87.6,56.6,29.71,ENE,62,10.0,15.0,35,0.00,,,0.00,Wunderground v.1.15,2013-08-05 19:19:00,
2013-08-05 12:26:00,88.1,56.2,29.70,East,95,9.0,12.0,34,0.00,,,0.00,Wunderground v.1.15,2013-08-05 19:26:00,
2013-08-05 12:32:00,88.8,56.0,29.70,NE,51,9.0,9.0,33,0.00,,,0.00,Wunderground v.1.15,2013-08-05 19:32:00,
2013-08-05 12:38:00,88.7,55.1,29.70,ENE,74,9.0,11.0,32,0.00,,,0.00,Wunderground v.1.15,2013-08-05 19:38:00,
2013-08-05 12:43:00,88.6,55.0,29.70,NE,53,10.0,11.0,32,0.00,,,0.00,Wunderground v.1.15,2013-08-05 19:43:00,
2013-08-05 12:49:00,88.6,55.8,29.70,NE,40,10.0,13.0,33,0.00,,,0.00,Wunderground v.1.15,2013-08-05 19:49:00,
2013-08-05 12:55:00,88.6,55.0,29.70,NE,49,9.0,13.0,32,0.00,,,0.00,Wunderground v.1.15,2013-08-05 19:55:00,
2013-08-05 13:01:00,89.2,55.5,29.70,NE,54,9.0,9.0,32,0.00,,,0.00,Wunderground v.1.15,2013-08-05 20:01:00,
2013-08-05 13:06:00,89.9,55.2,29.70,NE,56,9.0,11.0,31,0.00,,,0.00,Wunderground v.1.15,2013-08-05 20:06:00,
2013-08-05 13:12:00,89.6,55.8,29.70,East,81,9.0,15.0,32,0.00,,,0.00,Wunderground v.1.15,2013-08-05 20:12:00,
2013-08-05 13:19:00,89.7,55.0,29.69,NE,53,9.0,15.0,31,0.00,,,0.00,Wunderground v.1.15,2013-08-05 20:19:00,
2013-08-05 13:24:00,90.0,55.3,29.69,NE,51,9.0,11.0,31,0.00,,,0.00,Wunderground v.1.15,2013-08-05 20:24:00,
2013-08-05 13:30:00,89.5,55.7,29.69,ENE,72,11.0,11.0,32,0.00,,,0.00,Wunderground v.1.15,2013-08-05 20:30:00,
2013-08-05 13:37:00,89.0,55.3,29.69,ENE,63,11.0,15.0,32,0.00,,,0.00,Wunderground v.1.15,2013-08-05 20:37:00,
2013-08-05 13:42:00,88.9,55.2,29.69,ENE,65,10.0,12.0,32,0.00,,,0.00,Wunderground v.1.15,2013-08-05 20:42:00,
2013-08-05 13:48:00,89.1,55.4,29.69,NE,49,11.0,13.0,32,0.00,,,0.00,Wunderground v.1.15,2013-08-05 20:48:00,
2013-08-05 13:53:00,89.3,56.4,29.69,NNE,25,10.0,11.0,33,0.00,,,0.00,Wunderground v.1.15,2013-08-05 20:53:00,
2013-08-05 13:59:00,89.2,55.5,29.68,NNE,16,9.0,13.0,32,0.00,,,0.00,Wunderground v.1.15,2013-08-05 20:59:00,
2013-08-05 14:04:00,88.8,55.1,29.68,NE,43,9.0,10.0,32,0.00,,,0.00,Wunderground v.1.15,2013-08-05 21:04:00,
2013-08-05 14:09:00,88.4,54.8,29.68,ENE,75,7.0,10.0,32,0.00,,,0.00,Wunderground v.1.15,2013-08-05 21:09:00,
2013-08-05 14:14:00,88.4,55.6,29.68,ENE,57,5.0,10.0,33,0.00,,,0.00,Wunderground v.1.15,2013-08-05 21:14:00,
2013-08-05 14:20:00,88.6,55.8,29.67,North,349,5.0,5.0,33,0.00,,,0.00,Wunderground v.1.15,2013-08-05 21:20:00,
2013-08-05 14:26:00,88.7,55.9,29.67,ENE,75,4.0,7.0,33,0.00,,,0.00,Wunderground v.1.15,2013-08-05 21:26:00,
2013-08-05 14:31:00,88.4,55.6,29.67,NNE,30,4.0,4.0,33,0.00,,,0.00,Wunderground v.1.15,2013-08-05 21:31:00,
2013-08-05 14:39:00,88.4,55.6,29.66,NW,307,5.0,8.0,33,0.00,,,0.00,Wunderground v.1.15,2013-08-05 21:39:00,
2013-08-05 14:44:00,88.5,55.7,29.66,SE,134,4.0,5.0,33,0.00,,,0.00,Wunderground v.1.15,2013-08-05 21:44:00,
2013-08-05 14:50:00,89.4,56.5,29.65,North,359,2.0,2.0,33,0.00,,,0.00,Wunderground v.1.15,2013-08-05 21:50:00,
2013-08-05 14:55:00,89.5,55.7,29.65,NNW,333,2.0,5.0,32,0.00,,,0.00,Wunderground v.1.15,2013-08-05 21:55:00,
2013-08-05 15:02:00,89.8,56.0,29.65,SSW,211,2.0,3.0,32,0.00,,,0.00,Wunderground v.1.15,2013-08-05 22:02:00,
2013-08-05 15:07:00,90.2,55.5,29.65,SSE,150,2.0,4.0,31,0.00,,,0.00,Wunderground v.1.15,2013-08-05 22:07:00,
2013-08-05 15:14:00,90.2,56.4,29.64,NNW,347,2.0,5.0,32,0.00,,,0.00,Wunderground v.1.15,2013-08-05 22:14:00,
2013-08-05 15:20:00,89.7,55.0,29.64,NNE,18,4.0,4.0,31,0.00,,,0.00,Wunderground v.1.15,2013-08-05 22:20:00,
2013-08-05 15:25:00,89.4,55.7,29.64,NW,304,4.0,4.0,32,0.00,,,0.00,Wunderground v.1.15,2013-08-05 22:25:00,
2013-08-05 15:31:00,89.2,55.5,29.64,NW,322,5.0,14.0,32,0.00,,,0.00,Wunderground v.1.15,2013-08-05 22:31:00,
2013-08-05 15:37:00,89.2,55.5,29.64,NNW,345,7.0,17.0,32,0.00,,,0.00,Wunderground v.1.15,2013-08-05 22:37:00,
2013-08-05 15:42:00,89.8,55.1,29.64,ENE,63,6.0,7.0,31,0.00,,,0.00,Wunderground v.1.15,2013-08-05 22:42:00,
2013-08-05 15:48:00,90.7,55.9,29.64,WSW,246,5.0,10.0,31,0.00,,,0.00,Wunderground v.1.15,2013-08-05 22:48:00,
2013-08-05 15:53:00,91.2,55.4,29.63,WSW,252,5.0,5.0,30,0.00,,,0.00,Wunderground v.1.15,2013-08-05 22:53:00,
2013-08-05 15:59:00,91.7,54.9,29.63,West,274,5.0,6.0,29,0.00,,,0.00,Wunderground v.1.15,2013-08-05 22:59:00,
2013-08-05 16:07:00,90.7,55.0,29.63,NE,37,5.0,12.0,30,0.00,,,0.00,Wunderground v.1.15,2013-08-05 23:07:00,
2013-08-05 16:12:00,90.0,54.4,29.63,WSW,253,6.0,9.0,30,0.00,,,0.00,Wunderground v.1.15,2013-08-05 23:12:00,
2013-08-05 16:18:00,89.6,55.0,29.63,NNE,27,5.0,9.0,31,0.00,,,0.00,Wunderground v.1.15,2013-08-05 23:18:00,
2013-08-05 16:24:00,89.3,54.7,29.63,WSW,248,3.0,5.0,31,0.00,,,0.00,Wunderground v.1.15,2013-08-05 23:24:00,
2013-08-05 16:30:00,89.5,54.9,29.63,SW,214,3.0,5.0,31,0.00,,,0.00,Wunderground v.1.15,2013-08-05 23:30:00,
2013-08-05 16:36:00,89.0,54.4,29.63,WNW,301,4.0,9.0,31,0.00,,,0.00,Wunderground v.1.15,2013-08-05 23:36:00,
2013-08-05 16:41:00,89.0,54.4,29.63,NW,307,4.0,7.0,31,0.00,,,0.00,Wunderground v.1.15,2013-08-05 23:41:00,
2013-08-05 16:51:00,88.8,55.1,29.63,West,273,5.0,7.0,32,0.00,,,0.00,Wunderground v.1.15,2013-08-05 23:51:00,
2013-08-05 16:56:00,88.8,55.1,29.63,NW,311,5.0,7.0,32,0.00,,,0.00,Wunderground v.1.15,2013-08-05 23:56:00,
2013-08-05 17:02:00,88.8,55.1,29.63,NNW,338,5.0,9.0,32,0.00,,,0.00,Wunderground v.1.15,2013-08-06 00:02:00,
2013-08-05 17:10:00,88.8,55.1,29.63,NNW,332,6.0,6.0,32,0.00,,,0.00,Wunderground v.1.15,2013-08-06 00:10:00,
2013-08-05 17:16:00,88.7,55.1,29.62,NNW,334,6.0,10.0,32,0.00,,,0.00,Wunderground v.1.15,2013-08-06 00:16:00,
2013-08-05 17:23:00,88.3,54.7,29.62,WSW,252,6.0,7.0,32,0.00,,,0.00,Wunderground v.1.15,2013-08-06 00:23:00,
2013-08-05 17:29:00,88.6,55.0,29.62,West,274,5.0,7.0,32,0.00,,,0.00,Wunderground v.1.15,2013-08-06 00:29:00,
2013-08-05 17:36:00,89.0,55.3,29.62,South,191,4.0,6.0,32,0.00,,,0.00,Wunderground v.1.15,2013-08-06 00:36:00,
2013-08-05 17:41:00,89.2,55.5,29.62,NW,314,3.0,3.0,32,0.00,,,0.00,Wunderground v.1.15,2013-08-06 00:41:00,
2013-08-05 17:47:00,89.2,54.6,29.62,WNW,298,3.0,6.0,31,0.00,,,0.00,Wunderground v.1.15,2013-08-06 00:47:00,
2013-08-05 17:52:00,88.8,55.1,29.62,NW,326,3.0,6.0,32,0.00,,,0.00,Wunderground v.1.15,2013-08-06 00:52:00,
2013-08-05 17:59:00,88.4,54.8,29.62,NW,316,5.0,10.0,32,0.00,,,0.00,Wunderground v.1.15,2013-08-06 00:59:00,
2013-08-05 18:04:00,88.3,54.7,29.62,North,356,4.0,9.0,32,0.00,,,0.00,Wunderground v.1.15,2013-08-06 01:04:00,
2013-08-05 18:12:00,88.4,55.6,29.62,South,181,3.0,4.0,33,0.00,,,0.00,Wunderground v.1.15,2013-08-06 01:12:00,
2013-08-05 18:18:00,88.2,55.5,29.62,SSW,193,3.0,9.0,33,0.00,,,0.00,Wunderground v.1.15,2013-08-06 01:18:00,
2013-08-05 18:25:00,87.9,55.2,29.63,SW,219,5.0,6.0,33,0.00,,,0.00,Wunderground v.1.15,2013-08-06 01:25:00,
2013-08-05 18:33:00,87.7,55.0,29.62,NNW,346,4.0,5.0,33,0.00,,,0.00,Wunderground v.1.15,2013-08-06 01:33:00,
2013-08-05 18:39:00,87.6,55.8,29.62,NNE,30,3.0,5.0,34,0.00,,,0.00,Wunderground v.1.15,2013-08-06 01:39:00,
2013-08-05 18:44:00,87.4,55.6,29.62,NNW,346,2.0,5.0,34,0.00,,,0.00,Wunderground v.1.15,2013-08-06 01:44:00,
2013-08-05 18:50:00,87.3,55.5,29.62,North,6,2.0,2.0,34,0.00,,,0.00,Wunderground v.1.15,2013-08-06 01:50:00,
2013-08-05 18:56:00,87.2,55.4,29.62,NNW,347,2.0,5.0,34,0.00,,,0.00,Wunderground v.1.15,2013-08-06 01:56:00,
2013-08-05 19:01:00,87.1,55.3,29.62,SW,222,3.0,4.0,34,0.00,,,0.00,Wunderground v.1.15,2013-08-06 02:01:00,
2013-08-05 19:07:00,87.0,55.2,29.62,NW,306,3.0,5.0,34,0.00,,,0.00,Wunderground v.1.15,2013-08-06 02:07:00,
2013-08-05 19:12:00,86.9,56.0,29.62,SE,124,3.0,4.0,35,0.00,,,0.00,Wunderground v.1.15,2013-08-06 02:12:00,
2013-08-05 19:18:00,86.7,55.8,29.63,North,352,2.0,4.0,35,0.00,,,0.00,Wunderground v.1.15,2013-08-06 02:18:00,
2013-08-05 19:24:00,86.6,55.7,29.63,NW,320,2.0,4.0,35,0.00,,,0.00,Wunderground v.1.15,2013-08-06 02:24:00,
2013-08-05 19:30:00,86.6,55.7,29.64,NNW,329,3.0,3.0,35,0.00,,,0.00,Wunderground v.1.15,2013-08-06 02:30:00,
2013-08-05 19:35:00,86.6,55.7,29.64,WSW,252,3.0,5.0,35,0.00,,,0.00,Wunderground v.1.15,2013-08-06 02:35:00,
2013-08-05 19:41:00,86.6,55.7,29.65,West,280,2.0,4.0,35,0.00,,,0.00,Wunderground v.1.15,2013-08-06 02:41:00,
2013-08-05 19:47:00,86.5,55.6,29.65,SSW,210,2.0,4.0,35,0.00,,,0.00,Wunderground v.1.15,2013-08-06 02:47:00,
2013-08-05 19:52:00,86.3,55.4,29.65,WNW,289,2.0,7.0,35,0.00,,,0.00,Wunderground v.1.15,2013-08-06 02:52:00,
2013-08-05 19:58:00,86.2,55.3,29.66,WSW,242,3.0,7.0,35,0.00,,,0.00,Wunderground v.1.15,2013-08-06 02:58:00,
2013-08-05 20:03:00,86.1,55.2,29.66,South,170,3.0,3.0,35,0.00,,,0.00,Wunderground v.1.15,2013-08-06 03:03:00,
2013-08-05 20:10:00,85.9,55.1,29.66,West,273,2.0,2.0,35,0.00,,,0.00,Wunderground v.1.15,2013-08-06 03:10:00,
2013-08-05 20:15:00,85.9,55.1,29.67,SW,224,2.0,7.0,35,0.00,,,0.00,Wunderground v.1.15,2013-08-06 03:15:00,
2013-08-05 20:20:00,84.8,57.8,29.67,West,264,6.0,6.0,40,0.00,,,0.00,Wunderground v.1.15,2013-08-06 03:20:00,
2013-08-05 20:26:00,83.9,57.7,29.68,WSW,255,6.0,12.0,41,0.00,,,0.00,Wunderground v.1.15,2013-08-06 03:26:00,
2013-08-05 20:31:00,83.5,58.0,29.68,WNW,295,7.0,10.0,42,0.00,,,0.00,Wunderground v.1.15,2013-08-06 03:31:00,
2013-08-05 20:38:00,83.2,58.4,29.68,WSW,249,8.0,13.0,43,0.00,,,0.00,Wunderground v.1.15,2013-08-06 03:38:00,
2013-08-05 20:45:00,83.0,58.2,29.68,WSW,255,8.0,11.0,43,0.00,,,0.00,Wunderground v.1.15,2013-08-06 03:45:00,
2013-08-05 20:51:00,82.6,58.5,29.69,WSW,242,9.0,11.0,44,0.00,,,0.00,Wunderground v.1.15,2013-08-06 03:51:00,
2013-08-05 20:56:00,81.8,59.0,29.69,SW,225,12.0,15.0,46,0.00,,,0.00,Wunderground v.1.15,2013-08-06 03:56:00,
2013-08-05 21:01:00,81.1,59.0,29.69,SW,219,11.0,12.0,47,0.00,,,0.00,Wunderground v.1.15,2013-08-06 04:01:00,
2013-08-05 21:02:00,81.1,59.0,29.69,West,261,11.0,13.0,47,0.00,,,0.00,Wunderground v.1.15,2013-08-06 04:02:00,
2013-08-05 21:03:00,81.0,58.9,29.69,WSW,239,11.0,13.0,47,0.00,,,0.00,Wunderground v.1.15,2013-08-06 04:03:00,
2013-08-05 21:09:00,80.8,58.7,29.70,WSW,242,11.0,13.0,47,0.00,,,0.00,Wunderground v.1.15,2013-08-06 04:09:00,
2013-08-05 21:11:00,80.8,58.7,29.70,WSW,258,11.0,12.0,47,0.00,,,0.00,Wunderground v.1.15,2013-08-06 04:11:00,
2013-08-05 21:17:00,80.8,58.7,29.70,SW,236,10.0,12.0,47,0.00,,,0.00,Wunderground v.1.15,2013-08-06 04:17:00,
2013-08-05 21:22:00,80.6,59.1,29.71,WSW,252,9.0,10.0,48,0.00,,,0.00,Wunderground v.1.15,2013-08-06 04:22:00,
2013-08-05 21:28:00,80.5,59.0,29.71,WSW,245,8.0,12.0,48,0.00,,,0.00,Wunderground v.1.15,2013-08-06 04:28:00,
2013-08-05 21:33:00,80.2,60.4,29.71,WSW,243,8.0,11.0,51,0.00,,,0.00,Wunderground v.1.15,2013-08-06 04:33:00,
2013-08-05 21:39:00,79.6,61.0,29.71,SW,233,9.0,11.0,53,0.00,,,0.00,Wunderground v.1.15,2013-08-06 04:39:00,
2013-08-05 21:44:00,79.0,62.5,29.71,SW,224,8.0,9.0,57,0.00,,,0.00,Wunderground v.1.15,2013-08-06 04:44:00,
2013-08-05 21:50:00,78.1,62.6,29.72,SW,219,6.0,6.0,59,0.00,,,0.01,Wunderground v.1.15,2013-08-06 04:50:00,
2013-08-05 21:56:00,77.1,63.1,29.72,WSW,250,3.0,6.0,62,0.00,,,0.01,Wunderground v.1.15,2013-08-06 04:56:00,
2013-08-05 22:01:00,76.1,63.0,29.73,WSW,238,5.0,7.0,64,0.08,,,0.02,Wunderground v.1.15,2013-08-06 05:01:00,
2013-08-05 22:07:00,74.7,63.9,29.73,WSW,257,7.0,10.0,69,0.06,,,0.02,Wunderground v.1.15,2013-08-06 05:07:00,
2013-08-05 22:12:00,73.6,64.8,29.72,WSW,245,7.0,9.0,74,0.06,,,0.03,Wunderground v.1.15,2013-08-06 05:12:00,
2013-08-05 22:18:00,72.8,65.2,29.73,WNW,285,4.0,9.0,77,0.06,,,0.03,Wunderground v.1.15,2013-08-06 05:18:00,
2013-08-05 22:23:00,72.4,65.5,29.73,WSW,241,4.0,4.0,79,0.05,,,0.04,Wunderground v.1.15,2013-08-06 05:23:00,
2013-08-05 22:29:00,71.9,65.4,29.73,SSW,193,6.0,14.0,80,0.05,,,0.04,Wunderground v.1.15,2013-08-06 05:29:00,
2013-08-05 22:34:00,70.9,64.4,29.73,WSW,238,7.0,9.0,80,0.04,,,0.04,Wunderground v.1.15,2013-08-06 05:34:00,
2013-08-05 22:40:00,69.8,64.4,29.73,WNW,283,5.0,5.0,83,0.00,,,0.04,Wunderground v.1.15,2013-08-06 05:40:00,
2013-08-05 22:45:00,69.3,63.9,29.73,WSW,238,4.0,6.0,83,0.00,,,0.04,Wunderground v.1.15,2013-08-06 05:45:00,
2013-08-05 22:51:00,69.0,64.0,29.73,WSW,257,4.0,5.0,84,0.00,,,0.04,Wunderground v.1.15,2013-08-06 05:51:00,
2013-08-05 22:56:00,68.9,64.2,29.73,WNW,282,4.0,5.0,85,0.00,,,0.04,Wunderground v.1.15,2013-08-06 05:56:00,
2013-08-05 23:01:00,68.9,64.2,29.73,SW,222,4.0,5.0,85,0.00,,,0.04,Wunderground v.1.15,2013-08-06 06:01:00,
2013-08-05 23:07:00,69.1,63.7,29.73,West,264,4.0,5.0,83,0.00,,,0.04,Wunderground v.1.15,2013-08-06 06:07:00,
2013-08-05 23:12:00,69.0,63.6,29.73,West,267,5.0,6.0,83,0.00,,,0.04,Wunderground v.1.15,2013-08-06 06:12:00,
2013-08-05 23:18:00,69.0,63.6,29.73,West,269,6.0,8.0,83,0.00,,,0.04,Wunderground v.1.15,2013-08-06 06:18:00,
2013-08-05 23:23:00,69.1,63.4,29.73,WNW,296,5.0,5.0,82,0.00,,,0.04,Wunderground v.1.15,2013-08-06 06:23:00,
2013-08-05 23:28:00,69.2,63.5,29.73,WSW,253,4.0,5.0,82,0.00,,,0.04,Wunderground v.1.15,2013-08-06 06:28:00,
2013-08-05 23:33:00,69.4,63.7,29.73,West,271,4.0,6.0,82,0.00,,,0.04,Wunderground v.1.15,2013-08-06 06:33:00,
2013-08-05 23:39:00,69.6,63.9,29.73,West,280,3.0,6.0,82,0.00,,,0.04,Wunderground v.1.15,2013-08-06 06:39:00,
2013-08-05 23:44:00,69.6,63.5,29.73,West,280,3.0,4.0,81,0.00,,,0.04,Wunderground v.1.15,2013-08-06 06:44:00,
2013-08-05 23:50:00,69.7,64.0,29.73,West,280,3.0,3.0,82,0.00,,,0.04,Wunderground v.1.15,2013-08-06 06:50:00,
2013-08-05 23:55:00,69.7,63.6,29.73,WNW,301,2.0,6.0,81,0.00,,,0.04,Wunderground v.1.15,2013-08-06 06:55:00,